Date,TemperatureHighF,TemperatureAvgF,TemperatureLowF,DewpointHighF,DewpointAvgF,DewpointLowF,HumidityHigh,HumidityAvg,HumidityLow,PressureMaxIn,PressureMinIn,WindSpeedMaxMPH,WindSpeedAvgMPH,GustSpeedMaxMPH,PrecipitationSumIn
2013-1-1,26.0,22.8,18.0,17.0,13.5,11.0,75,67,59,30.08,29.96,5,0,11,0.00
2013-1-2,26.0,22.0,17.0,22.0,16.7,11.0,86,80,75,30.09,29.98,2,0,9,0.00
2013-1-3,29.0,25.8,21.0,24.0,20.5,16.0,86,80,76,30.05,29.94,9,1,13,0.00
2013-1-4,35.0,29.6,27.0,26.0,23.3,21.0,84,77,69,30.07,29.87,11,3,21,0.00
2013-1-5,37.0,28.1,16.0,31.0,24.3,14.0,93,85,71,30.16,29.88,6,1,9,0.00
2013-1-6,35.0,33.7,30.0,34.0,30.4,25.0,100,88,77,30.18,29.78,4,1,10,0.08
2013-1-7,38.0,32.1,28.0,27.0,25.2,23.0,87,76,55,30.23,30.00,15,3,20,0.01
2013-1-8,41.0,32.1,27.0,33.0,26.8,23.0,86,81,72,30.13,30.01,4,1,7,0.00
2013-1-9,46.0,38.3,28.0,35.0,29.9,24.0,88,72,53,30.35,29.86,24,3,24,0.01
2013-1-10,45.0,33.1,23.0,32.0,27.0,21.0,93,79,60,30.47,30.11,4,0,10,0.10
2013-1-11,51.0,43.1,35.0,50.0,41.6,32.0,96,94,90,30.11,29.64,4,1,9,0.78
2013-1-12,57.0,48.9,42.0,50.0,42.0,33.0,95,78,56,29.87,29.68,10,2,15,0.01
2013-1-13,42.0,35.2,27.0,36.0,33.0,23.0,95,92,79,29.95,29.72,3,0,9,0.38
2013-1-14,27.0,22.0,14.0,23.0,15.7,11.0,90,77,62,30.33,29.95,9,1,13,0.03
2013-1-15,28.0,19.0,12.0,20.0,14.4,9.0,91,83,70,30.34,30.08,6,0,6,0.01
2013-1-16,35.0,25.0,14.0,30.0,20.4,11.0,90,83,64,30.08,29.65,12,2,18,0.01
2013-1-17,32.0,24.8,17.0,29.0,18.0,8.0,87,75,62,30.24,29.86,6,0,9,0.01
2013-1-18,35.0,21.8,8.0,27.0,15.8,5.0,88,78,63,30.33,29.79,16,2,21,0.00
2013-1-19,42.0,38.0,34.0,38.0,31.8,26.0,84,78,73,29.80,29.41,8,1,21,0.02
2013-1-20,36.0,20.3,13.0,32.0,11.4,5.0,90,68,59,30.09,29.42,15,3,25,0.02
2013-1-21,15.0,11.5,4.0,11.0,2.8,-5.0,83,68,53,30.06,29.88,6,1,17,0.00
2013-1-22,10.0,4.0,-1.0,-1.0,-4.5,-8.0,75,67,54,30.19,30.02,4,1,13,0.00
2013-1-23,17.0,10.4,3.0,12.0,5.2,-3.0,85,79,71,30.20,29.99,6,0,12,0.00
2013-1-24,19.0,11.3,4.0,9.0,4.6,0.0,92,75,51,30.53,30.07,3,0,5,0.00
2013-1-25,22.0,16.9,12.0,17.0,12.2,5.0,89,82,72,30.42,29.92,3,0,9,0.00
2013-1-26,31.0,21.9,14.0,20.0,15.8,10.0,90,78,57,30.35,29.96,3,0,7,0.05
2013-1-27,30.0,22.5,12.0,25.0,17.4,9.0,92,81,65,30.37,30.05,6,0,10,0.01
2013-1-28,41.0,35.2,27.0,40.0,33.4,25.0,100,93,89,30.05,29.75,5,0,10,0.30
2013-1-29,54.0,43.4,34.0,53.0,42.0,32.0,97,95,92,29.94,29.34,5,0,7,0.81
2013-1-30,54.0,42.0,31.0,53.0,40.7,26.0,97,95,83,29.34,28.98,6,1,18,0.74
2013-1-31,31.0,21.5,18.0,26.0,12.9,9.0,82,69,56,29.78,29.14,14,3,16,0.02